Tiree, Tiree Airport (EGPU)

NameTiree Airport
CityTiree
CountryUnited Kingdom
ICAOEGPU
IATATRE
Altitude12 m
CoordinatesGoogle Map
Live Air TrafficLiveATC.net
METAREGPU 180050Z AUTO 16020KT 9999 FEW036/// 05/M02 Q1011
2019-01-18 00:50:00 Wind: South-Southeast (160°) 10.29 m/s - Visibility: > 10000 m - Temperature: 5 °C - Dew point: -2 °C - Humidity: 60.9% - Pressure: 1011 hPa
Statistics

The table below shows the detailed information of all flights to/from Tiree, Tiree Airport (EGPU).